Terminal Aerodrome Forecast
Issued by NWS

Home | Current Version | Previous Version | Text Only | Print | Product List | Glossary Off
Versions: 1 2 3 4 5 6 7 8 9 10 11 12 13 14 15 16

000
FTUS45 KGGW 011125 AAB
TAFOLF
TAF AMD
KOLF 011125Z 0111/0206 00000KT P6SM BKN060
     FM011500 00000KT P6SM BKN035
     FM012100 VRB05KT P6SM OVC015
     FM020400 VRB05KT P6SM OVC020=

USA.gov is the U.S. government's official web portal to all federal, state and local government web resources and services.